Time;durP1;ratioP1;P1;durP2;ratioP2;P2;SDS_P1;SDS_P2;PMS_P1;PMS_P2;Temp;Humidity;BMP_temperature;BMP_pressure;BME280_temperature;BME280_humidity;BME280_pressure;Samples;Min_cycle;Max_cycle;Signal;HPM_P1;HPM_P2
2022/11/13 00:01:21;;;;;;;17.60;11.40;;;;;;;7.44;100.00;102489.41;5032645;28;20037;-67
2022/11/13 00:03:46;;;;;;;13.48;10.43;;;;;;;7.43;100.00;102490.44;5035900;28;20030;-67
2022/11/13 00:06:13;;;;;;;14.57;11.02;;;;;;;7.47;100.00;102485.56;5034712;28;20032;-67
2022/11/13 00:08:39;;;;;;;13.35;9.88;;;;;;;7.41;100.00;102487.91;5034709;28;20021;-75
2022/11/13 00:11:07;;;;;;;13.65;10.15;;;;;;;7.43;100.00;102490.44;5035674;28;20079;-68
2022/11/13 00:13:33;;;;;;;14.55;10.55;;;;;;;7.34;100.00;102477.97;5033292;28;20473;-68
2022/11/13 00:16:01;;;;;;;16.13;10.27;;;;;;;7.34;100.00;102484.19;5033801;28;20059;-68
2022/11/13 00:18:28;;;;;;;12.48;10.02;;;;;;;7.26;100.00;102482.31;5034843;28;20033;-67
2022/11/13 00:20:55;;;;;;;15.35;10.00;;;;;;;7.22;100.00;102474.72;5035464;28;20057;-68
2022/11/13 00:23:20;;;;;;;13.77;10.32;;;;;;;7.16;100.00;102468.13;5035613;28;20029;-68
2022/11/13 00:25:46;;;;;;;12.48;9.25;;;;;;;7.15;100.00;102471.81;5035383;28;20017;-67
2022/11/13 00:28:11;;;;;;;11.88;9.50;;;;;;;7.14;100.00;102469.28;5034243;28;20037;-68
2022/11/13 00:30:36;;;;;;;13.55;9.63;;;;;;;7.06;100.00;102462.03;5034348;28;20074;-68
2022/11/13 00:33:01;;;;;;;11.02;8.90;;;;;;;7.01;100.00;102467.91;5015066;28;20050;-67
2022/11/13 00:35:27;;;;;;;14.15;9.65;;;;;;;6.97;100.00;102473.75;5015982;28;20030;-68
2022/11/13 00:37:53;;;;;;;13.60;9.75;;;;;;;6.94;100.00;102474.09;5015672;28;20040;-67
2022/11/13 00:40:19;;;;;;;18.98;11.25;;;;;;;6.91;100.00;102459.97;5015771;28;20030;-68
2022/11/13 00:42:44;;;;;;;11.77;9.77;;;;;;;6.91;100.00;102454.56;5014991;28;20463;-67
2022/11/13 00:45:10;;;;;;;14.60;10.68;;;;;;;6.90;100.00;102452.88;5015202;28;20026;-67
2022/11/13 00:47:35;;;;;;;14.27;10.07;;;;;;;6.84;100.00;102452.66;5031160;28;20097;-67
2022/11/13 00:50:00;;;;;;;14.50;9.85;;;;;;;6.76;100.00;102450.78;5035029;28;20120;-67
2022/11/13 00:52:25;;;;;;;13.52;10.05;;;;;;;6.71;100.00;102439.66;5035133;28;20037;-68
2022/11/13 00:54:51;;;;;;;13.25;9.95;;;;;;;6.74;100.00;102444.72;5026930;28;20018;-67
2022/11/13 00:57:16;;;;;;;13.95;9.82;;;;;;;6.71;100.00;102442.34;5013986;28;20473;-68
2022/11/13 00:59:41;;;;;;;13.02;9.88;;;;;;;6.64;100.00;102444.81;5014370;28;20030;-67
2022/11/13 01:02:06;;;;;;;17.23;10.13;;;;;;;6.61;100.00;102431.69;5027126;28;20100;-67
2022/11/13 01:04:32;;;;;;;13.55;9.88;;;;;;;6.61;100.00;102430.88;5032666;28;20033;-68
2022/11/13 01:06:57;;;;;;;13.43;9.50;;;;;;;6.65;100.00;102427.69;5034576;28;20030;-67
2022/11/13 01:09:22;;;;;;;12.95;9.73;;;;;;;6.65;100.00;102445.69;5034819;28;20068;-68
2022/11/13 01:11:48;;;;;;;16.17;9.88;;;;;;;6.67;100.00;102439.16;5027934;28;20449;-67
2022/11/13 01:14:13;;;;;;;14.02;10.07;;;;;;;6.73;100.00;102434.97;5014445;28;20022;-67
2022/11/13 01:16:38;;;;;;;13.38;9.32;;;;;;;6.77;100.00;102430.94;5029307;28;20394;-67
2022/11/13 01:19:03;;;;;;;12.48;8.90;;;;;;;6.80;100.00;102435.19;5033161;28;20112;-67
2022/11/13 01:21:29;;;;;;;13.32;9.65;;;;;;;6.83;100.00;102434.84;5033293;28;20522;-68
2022/11/13 01:23:55;;;;;;;15.00;9.45;;;;;;;6.84;100.00;102428.44;5034191;28;20017;-68
2022/11/13 01:26:24;;;;;;;10.63;9.18;;;;;;;6.82;100.00;102435.84;5034618;28;20507;-67
2022/11/13 01:28:49;;;;;;;11.55;9.27;;;;;;;6.86;100.00;102429.97;5017184;28;20018;-68
2022/11/13 01:31:21;;;;;;;15.65;10.02;;;;;;;6.90;100.00;102431.34;5014624;28;20037;-67
2022/11/13 01:33:47;;;;;;;;;;;;;;;7.04;100.00;102437.13;5014402;28;20026;-68
2022/11/13 01:36:18;;;;;;;12.88;9.20;;;;;;;6.86;100.00;102426.47;5014608;28;20351;-68
2022/11/13 01:38:43;;;;;;;13.93;9.70;;;;;;;6.88;100.00;102425.28;5014245;28;20369;-67
2022/11/13 01:41:16;;;;;;;13.43;9.40;;;;;;;6.85;100.00;102430.13;5014062;28;20025;-67
2022/11/13 01:43:41;;;;;;;12.27;9.07;;;;;;;6.82;100.00;102423.22;5030688;28;20120;-68
2022/11/13 01:46:33;;;;;;;12.48;9.23;;;;;;;6.81;100.00;102431.47;5033695;28;20465;-67
2022/11/13 01:49:10;;;;;;;12.65;8.70;;;;;;;6.77;100.00;102422.88;5033962;28;20030;-67
2022/11/13 01:51:45;;;;;;;12.20;9.07;;;;;;;6.69;100.00;102417.47;5032478;28;20381;-67
2022/11/13 01:54:15;;;;;;;13.25;8.75;;;;;;;6.66;100.00;102415.09;5033545;28;20520;-68
2022/11/13 01:56:41;;;;;;;12.93;8.93;;;;;;;6.66;100.00;102415.94;5031648;28;20097;-67
2022/11/13 01:59:16;;;;;;;10.98;8.40;;;;;;;6.61;100.00;102398.59;5013893;28;20109;-68
2022/11/13 02:01:42;;;;;;;10.82;8.13;;;;;;;6.59;100.00;102398.75;5011805;28;20064;-67
2022/11/13 02:04:07;;;;;;;10.30;8.45;;;;;;;6.61;100.00;102393.19;5013865;28;20049;-67
2022/11/13 02:06:44;;;;;;;10.50;8.27;;;;;;;6.61;100.00;102395.91;5012691;28;20030;-67
2022/11/13 02:09:10;;;;;;;12.18;8.55;;;;;;;6.59;100.00;102389.84;5013807;28;20388;-67
2022/11/13 02:11:37;;;;;;;10.95;8.45;;;;;;;6.63;100.00;102394.75;5015906;28;20521;-67
2022/11/13 02:14:04;;;;;;;12.02;8.40;;;;;;;6.60;100.00;102396.88;5016894;28;20465;-68
2022/11/13 02:16:32;;;;;;;10.70;8.30;;;;;;;6.60;100.00;102386.13;5022890;28;20029;-67
2022/11/13 02:18:58;;;;;;;10.80;8.50;;;;;;;6.63;100.00;102386.66;5032051;28;20021;-67
2022/11/13 02:21:35;;;;;;;11.93;8.70;;;;;;;6.68;100.00;102378.13;5033412;28;20523;-67
2022/11/13 02:24:37;;;;;;;10.75;8.18;;;;;;;6.77;100.00;102377.13;5033276;28;20338;-67
2022/11/13 02:27:06;;;;;;;12.30;8.43;;;;;;;6.77;100.00;102369.06;5033195;28;20029;-67
2022/11/13 02:29:32;;;;;;;10.48;8.57;;;;;;;6.78;100.00;102361.81;5033311;28;20029;-68
2022/11/13 02:31:57;;;;;;;12.20;8.50;;;;;;;6.85;100.00;102365.56;5017787;28;20048;-68
2022/11/13 02:34:22;;;;;;;12.52;8.70;;;;;;;6.85;100.00;102361.00;5023648;28;20056;-68
2022/11/13 02:36:48;;;;;;;11.73;8.38;;;;;;;6.90;100.00;102360.53;5032948;28;20029;-68
2022/11/13 02:39:14;;;;;;;11.93;8.75;;;;;;;6.92;100.00;102361.22;5032833;28;20033;-68
2022/11/13 02:41:39;;;;;;;11.55;8.35;;;;;;;6.91;100.00;102368.47;5033028;28;20021;-68
2022/11/13 02:44:06;;;;;;;10.77;7.78;;;;;;;6.98;100.00;102367.81;5032938;28;20021;-67
2022/11/13 02:46:32;;;;;;;10.90;8.43;;;;;;;6.97;100.00;102360.72;5032037;28;20148;-67
2022/11/13 02:48:57;;;;;;;10.55;8.27;;;;;;;6.97;100.00;102353.47;5033084;28;20487;-68
2022/11/13 02:51:22;;;;;;;10.25;8.25;;;;;;;6.97;100.00;102347.28;5032747;28;20029;-67
2022/11/13 02:53:48;;;;;;;12.23;8.57;;;;;;;6.98;100.00;102354.34;5028661;28;20068;-68
2022/11/13 02:56:13;;;;;;;12.10;7.95;;;;;;;6.94;100.00;102345.75;5013513;28;20053;-67
2022/11/13 02:58:39;;;;;;;10.60;8.13;;;;;;;6.94;100.00;102345.75;5031515;28;20453;-67
2022/11/13 03:01:04;;;;;;;11.85;8.02;;;;;;;6.96;100.00;102342.88;5030114;28;20369;-67
2022/11/13 03:03:29;;;;;;;9.23;7.78;;;;;;;6.96;100.00;102340.19;5032445;28;20095;-68
2022/11/13 03:05:55;;;;;;;13.30;7.78;;;;;;;6.96;100.00;102342.88;5030358;28;20156;-68
2022/11/13 03:08:22;;;;;;;9.98;7.82;;;;;;;6.92;100.00;102340.53;5032739;28;20024;-68
2022/11/13 03:10:48;;;;;;;12.60;8.18;;;;;;;6.94;100.00;102345.75;5031460;28;20035;-67
2022/11/13 03:13:13;;;;;;;12.43;8.23;;;;;;;6.91;100.00;102338.84;5016374;28;20034;-67
2022/11/13 03:15:39;;;;;;;9.70;7.85;;;;;;;6.92;100.00;102331.63;5011314;28;20339;-67
2022/11/13 03:18:05;;;;;;;12.52;8.02;;;;;;;6.92;100.00;102337.81;5011372;28;20034;-67
2022/11/13 03:20:31;;;;;;;8.93;7.50;;;;;;;6.92;100.00;102328.91;5012870;28;20081;-67
2022/11/13 03:22:56;;;;;;;10.80;7.65;;;;;;;6.94;100.00;102326.06;5012345;28;20030;-67
2022/11/13 03:25:22;;;;;;;11.80;7.47;;;;;;;6.90;100.00;102318.31;5012497;28;20104;-67
2022/11/13 03:27:47;;;;;;;10.32;7.60;;;;;;;6.94;100.00;102326.91;5012622;28;20112;-67
2022/11/13 03:30:13;;;;;;;9.60;7.50;;;;;;;6.91;100.00;102325.41;5010900;28;20037;-67
2022/11/13 03:32:38;;;;;;;10.32;7.75;;;;;;;6.86;100.00;102321.50;5012538;28;20156;-67
2022/11/13 03:35:04;;;;;;;11.15;7.63;;;;;;;6.88;100.00;102325.72;5012773;28;20034;-67
2022/11/13 03:37:29;;;;;;;11.52;7.60;;;;;;;6.87;100.00;102324.03;5012726;28;20030;-67
2022/11/13 03:39:54;;;;;;;10.93;7.57;;;;;;;6.87;100.00;102323.16;5012125;28;20045;-67
2022/11/13 03:42:19;;;;;;;10.35;7.75;;;;;;;6.87;100.00;102315.97;5024115;28;20026;-67
2022/11/13 03:44:45;;;;;;;10.63;7.45;;;;;;;6.90;100.00;102312.09;5032365;28;20079;-67
2022/11/13 03:47:10;;;;;;;10.80;7.82;;;;;;;6.92;100.00;102315.47;5031894;28;20025;-67
2022/11/13 03:49:35;;;;;;;12.35;7.78;;;;;;;6.98;100.00;102306.72;5032329;28;20025;-67
2022/11/13 03:52:01;;;;;;;10.98;7.60;;;;;;;7.00;100.00;102303.88;5018030;28;20040;-67
2022/11/13 03:54:26;;;;;;;13.48;7.82;;;;;;;7.00;100.00;102306.56;5011062;28;20109;-67
2022/11/13 03:56:51;;;;;;;10.32;7.45;;;;;;;6.98;100.00;102297.81;5023157;28;20029;-67
2022/11/13 03:59:16;;;;;;;12.80;8.07;;;;;;;7.05;100.00;102299.69;5030832;28;20041;-67
2022/11/13 04:01:42;;;;;;;14.35;7.97;;;;;;;7.08;100.00;102298.50;5029718;28;20249;-67
2022/11/13 04:04:07;;;;;;;10.88;7.65;;;;;;;7.12;100.00;102288.25;5031989;28;20025;-67
2022/11/13 04:06:32;;;;;;;11.35;8.10;;;;;;;7.13;100.00;102290.78;5032036;28;20025;-67
2022/11/13 04:08:58;;;;;;;9.27;7.53;;;;;;;7.13;100.00;102280.00;5032521;28;20484;-67
2022/11/13 04:11:23;;;;;;;12.93;8.50;;;;;;;7.15;100.00;102283.38;5028242;28;20772;-67
2022/11/13 04:13:48;;;;;;;10.23;8.05;;;;;;;7.17;100.00;102281.38;5024756;28;20072;-67
2022/11/13 04:16:13;;;;;;;10.77;8.25;;;;;;;7.16;100.00;102279.66;5032075;28;20040;-67
2022/11/13 04:18:39;;;;;;;9.57;7.78;;;;;;;7.20;100.00;102282.84;5032079;28;20022;-67
2022/11/13 04:21:05;;;;;;;12.77;7.93;;;;;;;7.21;100.00;102276.47;5031809;28;20071;-67
2022/11/13 04:23:30;;;;;;;8.75;7.10;;;;;;;7.23;100.00;102275.31;5030715;28;20437;-67
2022/11/13 04:25:55;;;;;;;9.68;7.40;;;;;;;7.22;100.00;102276.31;5023248;28;20484;-67
2022/11/13 04:28:21;;;;;;;11.02;7.88;;;;;;;7.25;100.00;102277.84;5011759;28;20069;-67
2022/11/13 04:30:46;;;;;;;10.57;7.78;;;;;;;7.22;100.00;102268.22;5010624;28;20026;-68
2022/11/13 04:33:12;;;;;;;9.00;7.53;;;;;;;7.22;100.00;102262.00;5011774;28;20064;-66
2022/11/13 04:35:37;;;;;;;9.73;7.43;;;;;;;7.23;100.00;102260.97;5015341;28;20466;-67
2022/11/13 04:38:04;;;;;;;9.90;6.78;;;;;;;7.23;100.00;102269.94;5014188;28;20133;-67
2022/11/13 04:40:29;;;;;;;9.70;7.75;;;;;;;7.25;100.00;102257.13;5019175;28;20104;-67
2022/11/13 04:42:54;;;;;;;9.00;7.40;;;;;;;7.26;100.00;102260.66;5035470;28;20408;-67
2022/11/13 04:45:23;;;;;;;9.48;7.60;;;;;;;7.23;100.00;102256.47;5035135;28;20104;-67
2022/11/13 04:47:50;;;;;;;10.23;7.82;;;;;;;7.27;100.00;102259.66;5035296;28;20033;-67
2022/11/13 04:50:15;;;;;;;10.02;7.80;;;;;;;7.26;100.00;102258.81;5034755;28;20450;-67
2022/11/13 04:52:41;;;;;;;11.52;7.50;;;;;;;7.24;100.00;102257.28;5033900;28;20025;-67
2022/11/13 04:55:07;;;;;;;10.77;7.93;;;;;;;7.24;100.00;102258.13;5027433;28;20276;-67
2022/11/13 04:57:33;;;;;;;10.52;8.27;;;;;;;7.24;100.00;102260.81;5015213;28;20032;-67
2022/11/13 04:59:58;;;;;;;11.25;8.55;;;;;;;7.24;100.00;102255.44;5015379;28;20022;-67
2022/11/13 05:02:23;;;;;;;11.32;8.43;;;;;;;7.18;100.00;102261.50;5012523;28;20022;-67
2022/11/13 05:04:49;;;;;;;10.88;8.60;;;;;;;7.22;100.00;102252.06;5015182;28;20029;-67
2022/11/13 05:07:14;;;;;;;16.92;8.30;;;;;;;7.22;100.00;102262.84;5014647;28;20444;-67
2022/11/13 05:09:39;;;;;;;12.15;8.65;;;;;;;7.19;100.00;102260.50;5018142;28;20029;-67
2022/11/13 05:12:06;;;;;;;11.38;8.43;;;;;;;7.16;100.00;102263.53;5034384;28;20022;-67
2022/11/13 05:14:36;;;;;;;13.65;8.52;;;;;;;7.17;100.00;102261.66;5028352;28;20101;-67
2022/11/13 05:17:02;;;;;;;10.15;8.57;;;;;;;7.14;100.00;102260.16;5014755;28;20026;-67
2022/11/13 05:19:27;;;;;;;11.68;8.27;;;;;;;7.13;100.00;102260.34;5015211;28;20526;-67
2022/11/13 05:21:53;;;;;;;11.18;8.43;;;;;;;7.11;100.00;102255.13;5014828;28;20076;-67
2022/11/13 05:24:18;;;;;;;12.23;8.88;;;;;;;7.09;100.00;102251.72;5014641;28;20088;-67
2022/11/13 05:26:43;;;;;;;12.50;7.93;;;;;;;7.03;100.00;102255.91;5027579;28;20433;-67
2022/11/13 05:29:08;;;;;;;11.60;8.70;;;;;;;7.02;100.00;102248.03;5034359;28;20083;-67
2022/11/13 05:31:34;;;;;;;12.80;8.80;;;;;;;6.98;100.00;102250.22;5034428;28;20483;-67
2022/11/13 05:34:03;;;;;;;11.07;8.63;;;;;;;6.90;100.00;102242.16;5017940;28;20026;-67
2022/11/13 05:36:28;;;;;;;12.23;8.65;;;;;;;6.89;100.00;102235.06;5014673;28;20033;-67
2022/11/13 05:38:53;;;;;;;11.70;8.15;;;;;;;6.83;100.00;102235.75;5014315;28;20034;-67
2022/11/13 05:41:20;;;;;;;9.35;7.53;;;;;;;6.75;100.00;102239.25;5013405;28;20076;-67
2022/11/13 05:43:47;;;;;;;12.90;7.80;;;;;;;6.67;100.00;102237.41;5014486;28;20104;-66
2022/11/13 05:46:18;;;;;;;15.73;8.20;;;;;;;6.59;100.00;102245.44;5013811;28;20084;-67
2022/11/13 05:48:44;;;;;;;10.75;8.15;;;;;;;6.59;100.00;102242.75;5014381;28;20331;-67
2022/11/13 05:51:13;;;;;;;11.90;7.80;;;;;;;6.43;100.00;102246.25;5017890;28;20033;-67
2022/11/13 05:53:40;;;;;;;10.63;7.95;;;;;;;6.41;100.00;102236.66;5023446;28;20038;-67
2022/11/13 05:56:11;;;;;;;10.10;7.22;;;;;;;6.30;100.00;102244.00;5013690;28;20584;-67
2022/11/13 05:58:38;;;;;;;9.65;7.57;;;;;;;6.26;100.00;102245.31;5014236;28;20026;-67
2022/11/13 06:01:18;;;;;;;9.90;7.53;;;;;;;6.20;100.00;102238.78;5011645;28;20067;-67
2022/11/13 06:03:44;;;;;;;10.88;7.72;;;;;;;6.17;100.00;102246.28;5014094;28;20061;-67
2022/11/13 06:06:12;;;;;;;10.02;8.10;;;;;;;6.07;100.00;102241.06;5014366;28;20033;-66
2022/11/13 06:08:39;;;;;;;11.95;7.93;;;;;;;6.03;100.00;102237.00;5014002;28;20116;-67
2022/11/13 06:11:07;;;;;;;10.48;7.80;;;;;;;6.00;100.00;102234.63;5028229;28;20029;-67
2022/11/13 06:13:33;;;;;;;14.95;8.73;;;;;;;5.93;100.00;102237.06;5031984;28;20125;-67
2022/11/13 06:16:05;;;;;;;11.40;7.53;;;;;;;5.92;100.00;102223.78;5032339;28;20122;-67
2022/11/13 06:18:31;;;;;;;12.75;8.02;;;;;;;5.86;100.00;102220.75;5033314;28;20033;-67
2022/11/13 06:21:01;;;;;;;12.05;8.30;;;;;;;5.84;100.00;102219.22;5033587;28;20021;-67
2022/11/13 06:23:27;;;;;;;11.60;7.70;;;;;;;5.77;100.00;102219.03;5029835;28;20707;-67
2022/11/13 06:26:06;;;;;;;9.68;7.43;;;;;;;5.79;100.00;102221.56;5012387;28;20028;-67
2022/11/13 06:28:32;;;;;;;10.52;8.05;;;;;;;5.74;100.00;102213.16;5013721;28;20021;-67
2022/11/13 06:31:03;;;;;;;11.52;7.85;;;;;;;5.74;100.00;102213.16;5013198;28;20461;-67
2022/11/13 06:33:28;;;;;;;11.90;8.07;;;;;;;5.73;100.00;102217.66;5013104;28;20038;-67
2022/11/13 06:35:53;;;;;;;12.32;9.27;;;;;;;5.71;100.00;102219.69;5013821;28;20022;-67
2022/11/13 06:38:18;;;;;;;12.13;9.98;;;;;;;5.69;100.00;102210.91;5014524;28;20046;-67
2022/11/13 06:40:44;;;;;;;20.95;12.63;;;;;;;5.69;100.00;102202.84;5032822;28;20029;-67
2022/11/13 06:43:09;;;;;;;18.15;10.60;;;;;;;5.66;100.00;102201.34;5032473;28;20025;-67
2022/11/13 06:45:34;;;;;;;13.48;9.32;;;;;;;5.62;100.00;102199.16;5033116;28;20110;-67
2022/11/13 06:47:59;;;;;;;14.77;10.40;;;;;;;5.63;100.00;102195.44;5033065;28;20384;-67
2022/11/13 06:50:25;;;;;;;14.63;8.80;;;;;;;5.67;100.00;102199.50;5031597;28;20025;-67
2022/11/13 06:52:50;;;;;;;13.68;9.45;;;;;;;5.65;100.00;102196.97;5029486;28;20476;-67
2022/11/13 06:55:15;;;;;;;15.88;8.57;;;;;;;5.71;100.00;102200.88;5020722;28;20104;-67
2022/11/13 06:57:40;;;;;;;11.10;7.60;;;;;;;5.74;100.00;102197.03;5032193;28;20360;-67
2022/11/13 07:00:06;;;;;;;9.60;7.70;;;;;;;5.78;100.00;102198.38;5031669;28;20021;-67
2022/11/13 07:02:32;;;;;;;12.02;9.00;;;;;;;5.76;100.00;102198.53;5030432;28;20053;-67
2022/11/13 07:04:57;;;;;;;11.82;8.45;;;;;;;5.80;100.00;102197.22;5032485;28;20546;-67
2022/11/13 07:07:22;;;;;;;11.77;8.20;;;;;;;5.85;100.00;102205.63;5032303;28;20017;-67
2022/11/13 07:09:48;;;;;;;15.57;9.45;;;;;;;5.86;100.00;102193.06;5031216;28;20407;-67
2022/11/13 07:12:13;;;;;;;15.35;8.60;;;;;;;5.90;100.00;102201.63;5032201;28;20029;-67
2022/11/13 07:14:38;;;;;;;10.32;8.77;;;;;;;5.88;100.00;102199.09;5029541;28;20040;-67
2022/11/13 07:17:03;;;;;;;12.63;9.13;;;;;;;5.88;100.00;102196.41;5032696;28;20026;-67
2022/11/13 07:19:29;;;;;;;12.55;8.90;;;;;;;5.92;100.00;102191.56;5032458;28;20021;-67
2022/11/13 07:21:54;;;;;;;10.80;8.70;;;;;;;5.92;100.00;102199.63;5032311;28;20145;-67
2022/11/13 07:24:19;;;;;;;12.13;9.00;;;;;;;5.89;100.00;102197.25;5022258;28;20092;-67
2022/11/13 07:26:44;;;;;;;11.77;8.15;;;;;;;5.89;100.00;102191.88;5012864;28;20037;-67
2022/11/13 07:29:10;;;;;;;12.82;7.95;;;;;;;5.90;100.00;102190.88;5012645;28;20113;-67
2022/11/13 07:31:36;;;;;;;12.90;8.23;;;;;;;5.89;100.00;102191.88;5012476;28;20053;-67
2022/11/13 07:34:01;;;;;;;9.80;8.43;;;;;;;5.79;100.00;102184.78;5011590;28;20026;-67
2022/11/13 07:36:26;;;;;;;12.38;8.15;;;;;;;5.81;100.00;102184.63;5012623;28;20041;-67
2022/11/13 07:38:52;;;;;;;15.38;8.75;;;;;;;5.79;100.00;102187.47;5019625;28;20329;-67
2022/11/13 07:41:17;;;;;;;10.57;8.15;;;;;;;5.79;100.00;102187.47;5026356;28;20030;-67
2022/11/13 07:43:42;;;;;;;13.02;8.73;;;;;;;5.79;100.00;102189.31;5012665;28;20053;-67
2022/11/13 07:46:07;;;;;;;15.52;9.50;;;;;;;5.81;100.00;102188.19;5012412;28;20424;-67
2022/11/13 07:48:33;;;;;;;17.08;9.85;;;;;;;5.80;100.00;102186.47;5012188;28;20026;-67
2022/11/13 07:51:00;;;;;;;12.20;8.38;;;;;;;5.81;100.00;102180.13;5019492;28;20029;-67
2022/11/13 07:53:25;;;;;;;13.98;9.35;;;;;;;5.81;100.00;102182.81;5030599;28;20124;-67
2022/11/13 07:55:51;;;;;;;15.38;9.80;;;;;;;5.86;100.00;102188.53;5029472;28;20105;-67
2022/11/13 07:58:16;;;;;;;14.02;9.50;;;;;;;5.91;100.00;102184.53;5030553;28;20481;-68
2022/11/13 08:00:41;;;;;;;15.68;10.35;;;;;;;5.92;100.00;102183.50;5029922;28;20021;-67
2022/11/13 08:03:13;;;;;;;14.65;9.85;;;;;;;5.96;100.00;102184.88;5032071;28;20032;-68
2022/11/13 08:05:39;;;;;;;15.38;9.70;;;;;;;6.02;100.00;102185.09;5031940;28;20442;-67
2022/11/13 08:08:05;;;;;;;17.88;9.60;;;;;;;6.09;100.00;102185.28;5031954;28;20029;-68
2022/11/13 08:10:30;;;;;;;14.05;9.45;;;;;;;6.11;100.00;102172.53;5033223;28;20075;-69
2022/11/13 08:13:01;;;;;;;13.85;9.55;;;;;;;6.21;100.00;102178.59;5032506;28;20167;-68
2022/11/13 08:15:27;;;;;;;13.32;9.95;;;;;;;6.23;100.00;102174.91;5035784;28;20029;-67
2022/11/13 08:17:57;;;;;;;13.18;9.82;;;;;;;6.32;100.00;102169.38;5035707;28;20381;-67
2022/11/13 08:20:24;;;;;;;14.60;9.93;;;;;;;6.39;100.00;102169.59;5035643;28;20104;-71
2022/11/13 08:22:49;;;;;;;17.17;10.20;;;;;;;6.45;100.00;102182.38;5035668;28;20025;-69
2022/11/13 08:25:15;;;;;;;15.07;9.20;;;;;;;6.47;100.00;102174.97;5035556;28;20036;-68
2022/11/13 08:27:40;;;;;;;15.60;9.88;;;;;;;6.54;100.00;102170.63;5016660;28;20029;-68
2022/11/13 08:30:06;;;;;;;14.73;10.52;;;;;;;6.59;100.00;102171.97;5014590;28;20030;-68
2022/11/13 08:32:31;;;;;;;14.23;9.60;;;;;;;6.62;100.00;102171.66;5023616;28;20045;-69
2022/11/13 08:34:57;;;;;;;16.70;9.70;;;;;;;6.64;100.00;102177.69;5035360;28;20082;-67
2022/11/13 08:37:22;;;;;;;18.27;9.68;;;;;;;6.67;100.00;102172.84;5050593;28;20025;-71
2022/11/13 08:39:47;;;;;;;14.57;9.60;;;;;;;6.69;100.00;102168.13;5035046;28;20075;-67
2022/11/13 08:42:13;;;;;;;13.55;9.35;;;;;;;6.76;100.00;102162.91;5018174;28;20069;-74
2022/11/13 08:44:38;;;;;;;14.20;9.45;;;;;;;6.82;100.00;102156.00;5015389;28;20032;-68
2022/11/13 08:47:03;;;;;;;12.95;8.85;;;;;;;6.87;100.00;102156.34;5015563;28;20026;-68
2022/11/13 08:49:29;;;;;;;14.45;10.20;;;;;;;6.91;100.00;102158.56;5015369;28;20029;-68
2022/11/13 08:51:54;;;;;;;10.90;8.75;;;;;;;6.98;100.00;102157.88;5015610;28;20026;-68
2022/11/13 08:54:19;;;;;;;11.05;8.85;;;;;;;7.07;100.00;102164.94;5016185;28;20033;-69
2022/11/13 08:56:46;;;;;;;12.20;8.90;;;;;;;7.09;100.00;102163.72;5029064;28;20055;-68
2022/11/13 08:59:12;;;;;;;13.63;9.70;;;;;;;7.15;100.00;102159.53;5035098;28;20052;-69
2022/11/13 09:01:37;;;;;;;12.63;9.43;;;;;;;7.21;100.00;102150.75;5020571;28;20069;-70
2022/11/13 09:04:02;;;;;;;12.77;9.40;;;;;;;7.30;100.00;102164.22;5015285;28;20026;-69
2022/11/13 09:06:28;;;;;;;11.82;9.32;;;;;;;7.36;100.00;102158.16;5014976;28;20441;-69
2022/11/13 09:08:53;;;;;;;13.77;9.13;;;;;;;7.43;100.00;102151.09;5015173;28;20026;-69
2022/11/13 09:11:19;;;;;;;14.45;9.05;;;;;;;7.48;100.00;102150.56;5027011;28;20448;-69
2022/11/13 09:13:44;;;;;;;13.65;9.30;;;;;;;7.53;100.00;102159.78;5028691;28;20029;-69
2022/11/13 09:16:09;;;;;;;10.10;8.25;;;;;;;7.60;100.00;102147.31;5014829;28;20030;-69
2022/11/13 09:18:35;;;;;;;10.60;8.38;;;;;;;7.68;100.00;102146.44;5013447;28;20548;-69
2022/11/13 09:21:01;;;;;;;13.85;9.00;;;;;;;7.76;100.00;102132.94;5014159;28;20484;-69
2022/11/13 09:23:27;;;;;;;11.52;9.25;;;;;;;7.83;100.00;102134.94;5014594;28;20076;-69
2022/11/13 09:25:53;;;;;;;14.13;10.00;;;;;;;7.88;100.00;102141.50;5014883;28;20022;-69
2022/11/13 09:28:18;;;;;;;12.98;9.07;;;;;;;7.94;100.00;102131.84;5014603;28;20024;-70
2022/11/13 09:30:43;;;;;;;13.35;9.07;;;;;;;8.01;100.00;102132.00;5014730;28;20025;-70
2022/11/13 09:33:09;;;;;;;12.85;10.23;;;;;;;8.10;100.00;102134.47;5031266;28;20120;-69
2022/11/13 09:35:35;;;;;;;14.57;10.95;;;;;;;8.15;100.00;102124.00;5030745;28;20484;-70
2022/11/13 09:38:12;;;;;;;11.15;7.90;;;;;;;8.24;100.00;102137.41;5014652;28;20096;-69
2022/11/13 09:41:04;;;;;;;9.30;7.50;;;;;;;8.31;100.00;102147.31;5014355;28;20037;-70
2022/11/13 09:43:38;;;;;;;12.50;8.32;;;;;;;8.39;100.00;102140.19;5013646;28;20044;-70
2022/11/13 09:46:39;;;;;;;10.55;8.60;;;;;;;8.47;100.00;102137.47;5014503;28;20030;-70
2022/11/13 09:49:19;;;;;;;15.50;10.27;;;;;;;8.54;100.00;102143.81;5013185;28;20034;-69
2022/11/13 09:51:51;;;;;;;14.63;11.50;;;;;;;8.63;100.00;102136.53;5013553;28;20037;-70
2022/11/13 09:54:17;;;;;;;10.23;8.35;;;;;;;8.68;100.00;102139.50;5012562;28;20184;-69
2022/11/13 09:57:03;;;;;;;9.93;7.57;;;;;;;8.77;100.00;102142.97;5013847;28;20118;-69
2022/11/13 09:59:36;;;;;;;9.15;7.43;;;;;;;8.82;100.00;102135.19;5014079;28;20030;-74
2022/11/13 10:02:07;;;;;;;9.40;6.95;;;;;;;8.87;100.00;102127.38;5011649;28;20026;-74
2022/11/13 10:04:41;;;;;;;8.85;7.28;;;;;;;8.95;99.57;102134.56;5018252;28;20028;-70
2022/11/13 10:07:14;;;;;;;9.50;7.32;;;;;;;8.99;97.73;102136.72;5027547;28;20065;-70
2022/11/13 10:09:53;;;;;;;8.07;6.85;;;;;;;9.06;97.29;102142.25;5022909;28;20067;-71
2022/11/13 10:12:19;;;;;;;10.80;7.00;;;;;;;9.13;96.32;102131.53;5018655;28;20393;-71
2022/11/13 10:14:49;;;;;;;10.85;7.50;;;;;;;9.17;94.69;102133.69;5025820;28;20415;-71
2022/11/13 10:17:39;;;;;;;9.98;7.20;;;;;;;9.27;92.32;102135.25;5018315;28;20175;-70
2022/11/13 10:20:14;;;;;;;7.82;7.00;;;;;;;9.31;93.71;102126.59;5013877;28;20033;-70
2022/11/13 10:22:57;;;;;;;8.57;6.90;;;;;;;9.35;95.46;102129.78;5013431;28;20021;-70
2022/11/13 10:25:27;;;;;;;7.63;6.70;;;;;;;9.45;88.65;102124.09;5012220;28;20120;-70
2022/11/13 10:28:01;;;;;;;7.50;6.65;;;;;;;9.51;88.62;102124.22;5013435;28;20038;-70
2022/11/13 10:30:28;;;;;;;7.65;6.68;;;;;;;9.54;86.90;102122.97;5013076;28;20072;-69
2022/11/13 10:33:00;;;;;;;7.68;6.82;;;;;;;9.59;88.05;102109.75;5016213;28;20045;-71
2022/11/13 10:35:38;;;;;;;7.50;6.40;;;;;;;9.70;87.55;102119.25;5033084;28;20056;-70
2022/11/13 10:38:14;;;;;;;10.18;6.60;;;;;;;9.71;86.50;102107.44;5031916;28;20021;-70
2022/11/13 10:40:39;;;;;;;8.85;7.00;;;;;;;9.77;85.39;102101.25;5032669;28;20132;-76
2022/11/13 10:43:21;;;;;;;8.82;6.50;;;;;;;9.83;85.83;102105.91;5026532;28;20585;-69
2022/11/13 10:45:59;;;;;;;9.55;6.72;;;;;;;9.87;86.64;102098.25;5013222;28;20030;-70
2022/11/13 10:48:28;;;;;;;9.32;6.40;;;;;;;9.98;81.69;102096.91;5011822;28;20091;-76
2022/11/13 10:51:00;;;;;;;10.02;6.10;;;;;;;10.03;84.25;102089.91;5020072;28;20030;-70
2022/11/13 10:53:27;;;;;;;;;;;;;;;10.10;93.26;102090.84;5018336;28;20036;-77
2022/11/13 10:55:56;;;;;;;8.65;6.78;;;;;;;10.16;82.29;102077.56;5013166;28;19905;-68
2022/11/13 10:58:21;;;;;;;9.18;6.30;;;;;;;10.20;81.45;102078.84;5013150;28;20018;-69
2022/11/13 11:00:48;;;;;;;7.45;6.45;;;;;;;10.25;81.40;102073.69;5010309;28;20408;-70
2022/11/13 11:03:15;;;;;;;7.95;6.13;;;;;;;10.35;79.28;102076.13;5029937;28;20033;-71
2022/11/13 11:05:54;;;;;;;7.18;5.93;;;;;;;10.41;78.67;102070.75;5032694;28;20156;-74
2022/11/13 11:08:24;;;;;;;8.68;5.63;;;;;;;10.48;79.09;102059.16;5015756;28;20033;-73
2022/11/13 11:13:41;;;;;;;8.32;5.80;;;;;;;10.55;77.25;102060.91;5012818;28;20076;-69
2022/11/13 11:16:09;;;;;;;7.63;6.03;;;;;;;10.62;76.28;102066.38;5022342;28;20049;-69
2022/11/13 11:19:02;;;;;;;6.28;5.60;;;;;;;10.64;77.72;102056.19;5019158;28;20509;-70
2022/11/13 11:21:33;;;;;;;6.85;5.82;;;;;;;10.67;77.45;102061.19;5008921;28;20044;-70
2022/11/13 11:24:23;;;;;;;7.67;5.60;;;;;;;10.65;78.06;102060.56;5012525;28;20033;-69